sensor_id;sensor_type;location;lat;lon;timestamp;pressure;altitude;pressure_sealevel;temperature;humidity
46347;BME280;32057;47.830;19.046;2023-04-08T00:00:56;100457.75;;;4.03;100.00
46347;BME280;32057;47.830;19.046;2023-04-08T00:03:21;100450.94;;;4.04;100.00
46347;BME280;32057;47.830;19.046;2023-04-08T00:05:46;100450.84;;;4.02;100.00
46347;BME280;32057;47.830;19.046;2023-04-08T00:08:12;100452.59;;;4.03;100.00
46347;BME280;32057;47.830;19.046;2023-04-08T00:10:37;100451.16;;;4.08;100.00
46347;BME280;32057;47.830;19.046;2023-04-08T00:13:03;100446.13;;;4.11;100.00
46347;BME280;32057;47.830;19.046;2023-04-08T00:15:28;100448.69;;;4.11;100.00
46347;BME280;32057;47.830;19.046;2023-04-08T00:17:54;100452.84;;;4.08;100.00
46347;BME280;32057;47.830;19.046;2023-04-08T00:20:22;100452.75;;;4.06;100.00
46347;BME280;32057;47.830;19.046;2023-04-08T00:22:48;100452.59;;;4.03;100.00
46347;BME280;32057;47.830;19.046;2023-04-08T00:25:14;100456.13;;;4.05;100.00
46347;BME280;32057;47.830;19.046;2023-04-08T00:27:39;100455.19;;;4.03;100.00
46347;BME280;32057;47.830;19.046;2023-04-08T00:30:05;100457.75;;;4.03;100.00
46347;BME280;32057;47.830;19.046;2023-04-08T00:32:31;100457.91;;;4.06;100.00
46347;BME280;32057;47.830;19.046;2023-04-08T00:34:57;100451.44;;;3.96;100.00
46347;BME280;32057;47.830;19.046;2023-04-08T00:37:23;100453.84;;;3.93;100.00
46347;BME280;32057;47.830;19.046;2023-04-08T00:39:49;100457.31;;;3.94;100.00
46347;BME280;32057;47.830;19.046;2023-04-08T00:42:16;100453.13;;;3.96;100.00
46347;BME280;32057;47.830;19.046;2023-04-08T00:44:41;100458.19;;;3.94;100.00
46347;BME280;32057;47.830;19.046;2023-04-08T00:47:11;100466.00;;;3.96;100.00
46347;BME280;32057;47.830;19.046;2023-04-08T00:49:36;100460.69;;;3.93;100.00
46347;BME280;32057;47.830;19.046;2023-04-08T00:52:02;100467.47;;;3.91;100.00
46347;BME280;32057;47.830;19.046;2023-04-08T00:54:27;100462.00;;;3.85;100.00
46347;BME280;32057;47.830;19.046;2023-04-08T00:56:53;100468.63;;;3.79;100.00
46347;BME280;32057;47.830;19.046;2023-04-08T00:59:18;100466.84;;;3.78;100.00
46347;BME280;32057;47.830;19.046;2023-04-08T01:04:32;100476.69;;;3.69;100.00
46347;BME280;32057;47.830;19.046;2023-04-08T01:07:12;100471.97;;;3.61;100.00
46347;BME280;32057;47.830;19.046;2023-04-08T01:09:43;100468.25;;;3.55;100.00
46347;BME280;32057;47.830;19.046;2023-04-08T01:12:11;100469.66;;;3.49;100.00
46347;BME280;32057;47.830;19.046;2023-04-08T01:14:41;100470.31;;;3.45;100.00
46347;BME280;32057;47.830;19.046;2023-04-08T01:17:09;100470.00;;;3.38;100.00
46347;BME280;32057;47.830;19.046;2023-04-08T01:19:38;100468.81;;;3.32;100.00
46347;BME280;32057;47.830;19.046;2023-04-08T01:22:21;100462.31;;;3.22;100.00
46347;BME280;32057;47.830;19.046;2023-04-08T01:24:49;100461.06;;;3.15;100.00
46347;BME280;32057;47.830;19.046;2023-04-08T01:27:17;100466.88;;;3.11;100.00
46347;BME280;32057;47.830;19.046;2023-04-08T01:29:43;100474.75;;;3.14;100.00
46347;BME280;32057;47.830;19.046;2023-04-08T01:32:11;100472.09;;;3.13;100.00
46347;BME280;32057;47.830;19.046;2023-04-08T01:34:39;100474.75;;;3.14;100.00
46347;BME280;32057;47.830;19.046;2023-04-08T01:37:06;100467.03;;;3.14;100.00
46347;BME280;32057;47.830;19.046;2023-04-08T01:39:34;100464.38;;;3.13;100.00
46347;BME280;32057;47.830;19.046;2023-04-08T01:42:00;100471.44;;;3.17;100.00
46347;BME280;32057;47.830;19.046;2023-04-08T01:44:27;100464.13;;;3.25;100.00
46347;BME280;32057;47.830;19.046;2023-04-08T01:46:54;100463.41;;;3.27;100.00
46347;BME280;32057;47.830;19.046;2023-04-08T01:49:21;100473.00;;;3.30;100.00
46347;BME280;32057;47.830;19.046;2023-04-08T01:51:48;100464.53;;;3.32;100.00
46347;BME280;32057;47.830;19.046;2023-04-08T01:54:13;100466.47;;;3.36;100.00
46347;BME280;32057;47.830;19.046;2023-04-08T01:56:40;100467.34;;;3.37;100.00
46347;BME280;32057;47.830;19.046;2023-04-08T01:59:14;100464.84;;;3.38;100.00
46347;BME280;32057;47.830;19.046;2023-04-08T02:01:42;100466.63;;;3.39;100.00
46347;BME280;32057;47.830;19.046;2023-04-08T02:04:08;100462.28;;;3.38;100.00
46347;BME280;32057;47.830;19.046;2023-04-08T02:06:34;100465.16;;;3.45;100.00
46347;BME280;32057;47.830;19.046;2023-04-08T02:09:00;100477.22;;;3.46;100.00
46347;BME280;32057;47.830;19.046;2023-04-08T02:11:26;100462.66;;;3.46;100.00
46347;BME280;32057;47.830;19.046;2023-04-08T02:13:52;100467.25;;;3.52;100.00
46347;BME280;32057;47.830;19.046;2023-04-08T02:16:23;100467.31;;;3.53;100.00
46347;BME280;32057;47.830;19.046;2023-04-08T02:18:58;100463.84;;;3.53;100.00
46347;BME280;32057;47.830;19.046;2023-04-08T02:21:37;100464.72;;;3.53;100.00
46347;BME280;32057;47.830;19.046;2023-04-08T02:24:07;100459.66;;;3.55;100.00
46347;BME280;32057;47.830;19.046;2023-04-08T02:26:35;100464.81;;;3.55;100.00
46347;BME280;32057;47.830;19.046;2023-04-08T02:29:02;100467.38;;;3.55;100.00
46347;BME280;32057;47.830;19.046;2023-04-08T02:31:29;100462.66;;;3.46;100.00
46347;BME280;32057;47.830;19.046;2023-04-08T02:33:56;100461.94;;;3.49;100.00
46347;BME280;32057;47.830;19.046;2023-04-08T02:36:22;100457.84;;;3.52;100.00
46347;BME280;32057;47.830;19.046;2023-04-08T02:38:48;100465.47;;;3.51;100.00
46347;BME280;32057;47.830;19.046;2023-04-08T02:41:16;100469.88;;;3.53;100.00
46347;BME280;32057;47.830;19.046;2023-04-08T02:43:42;100464.03;;;3.56;100.00
46347;BME280;32057;47.830;19.046;2023-04-08T02:46:08;100466.81;;;3.61;100.00
46347;BME280;32057;47.830;19.046;2023-04-08T02:48:35;100471.22;;;3.63;100.00
46347;BME280;32057;47.830;19.046;2023-04-08T02:51:00;100469.03;;;3.71;100.00
46347;BME280;32057;47.830;19.046;2023-04-08T02:53:26;100468.31;;;3.73;100.00
46347;BME280;32057;47.830;19.046;2023-04-08T02:55:51;100466.72;;;3.75;100.00
46347;BME280;32057;47.830;19.046;2023-04-08T02:58:17;100473.63;;;3.76;100.00
46347;BME280;32057;47.830;19.046;2023-04-08T03:00:42;100472.00;;;3.78;100.00
46347;BME280;32057;47.830;19.046;2023-04-08T03:03:08;100466.84;;;3.78;100.00
46347;BME280;32057;47.830;19.046;2023-04-08T03:05:33;100466.56;;;3.72;100.00
46347;BME280;32057;47.830;19.046;2023-04-08T03:07:58;100469.22;;;3.74;100.00
46347;BME280;32057;47.830;19.046;2023-04-08T03:10:24;100465.81;;;3.75;100.00
46347;BME280;32057;47.830;19.046;2023-04-08T03:12:50;100467.69;;;3.77;100.00
46347;BME280;32057;47.830;19.046;2023-04-08T03:15:15;100468.63;;;3.79;100.00
46347;BME280;32057;47.830;19.046;2023-04-08T03:17:41;100466.19;;;3.83;100.00
46347;BME280;32057;47.830;19.046;2023-04-08T03:20:07;100472.19;;;3.82;100.00
46347;BME280;32057;47.830;19.046;2023-04-08T03:22:33;100467.97;;;3.84;100.00
46347;BME280;32057;47.830;19.046;2023-04-08T03:24:58;100468.13;;;3.87;100.00
46347;BME280;32057;47.830;19.046;2023-04-08T03:27:24;100476.59;;;3.84;100.00
46347;BME280;32057;47.830;19.046;2023-04-08T03:29:50;100479.38;;;3.89;100.00
46347;BME280;32057;47.830;19.046;2023-04-08T03:32:15;100480.25;;;3.89;100.00
46347;BME280;32057;47.830;19.046;2023-04-08T03:34:41;100474.09;;;3.86;100.00
46347;BME280;32057;47.830;19.046;2023-04-08T03:37:06;100480.13;;;3.86;100.00
46347;BME280;32057;47.830;19.046;2023-04-08T03:39:32;100475.03;;;3.88;100.00
46347;BME280;32057;47.830;19.046;2023-04-08T03:41:57;100475.72;;;3.84;100.00
46347;BME280;32057;47.830;19.046;2023-04-08T03:44:25;100476.50;;;3.83;100.00
46347;BME280;32057;47.830;19.046;2023-04-08T03:46:50;100481.34;;;3.76;100.00
46347;BME280;32057;47.830;19.046;2023-04-08T03:49:16;100479.59;;;3.75;100.00
46347;BME280;32057;47.830;19.046;2023-04-08T03:51:41;100487.31;;;3.75;100.00
46347;BME280;32057;47.830;19.046;2023-04-08T03:54:07;100490.03;;;3.78;100.00
46347;BME280;32057;47.830;19.046;2023-04-08T03:56:32;100484.97;;;3.80;100.00
46347;BME280;32057;47.830;19.046;2023-04-08T03:58:58;100486.72;;;3.81;100.00
46347;BME280;32057;47.830;19.046;2023-04-08T04:01:23;100497.75;;;3.78;100.00
46347;BME280;32057;47.830;19.046;2023-04-08T04:03:49;100493.41;;;3.77;100.00
46347;BME280;32057;47.830;19.046;2023-04-08T04:06:14;100492.75;;;3.82;100.00
46347;BME280;32057;47.830;19.046;2023-04-08T04:08:40;100497.91;;;3.82;100.00
46347;BME280;32057;47.830;19.046;2023-04-08T04:11:05;100493.72;;;3.84;100.00
46347;BME280;32057;47.830;19.046;2023-04-08T04:13:30;100507.47;;;3.84;100.00
46347;BME280;32057;47.830;19.046;2023-04-08T04:15:56;100502.16;;;3.81;100.00
46347;BME280;32057;47.830;19.046;2023-04-08T04:18:21;100501.38;;;3.82;100.00
46347;BME280;32057;47.830;19.046;2023-04-08T04:20:47;100503.06;;;3.82;100.00
46347;BME280;32057;47.830;19.046;2023-04-08T04:23:12;100506.44;;;3.81;100.00
46347;BME280;32057;47.830;19.046;2023-04-08T04:25:40;100499.53;;;3.79;100.00
46347;BME280;32057;47.830;19.046;2023-04-08T04:28:06;100509.16;;;3.84;100.00
46347;BME280;32057;47.830;19.046;2023-04-08T04:30:35;100505.84;;;3.86;100.00
46347;BME280;32057;47.830;19.046;2023-04-08T04:33:01;100511.09;;;3.88;100.00
46347;BME280;32057;47.830;19.046;2023-04-08T04:35:26;100510.44;;;3.92;100.00
46347;BME280;32057;47.830;19.046;2023-04-08T04:37:52;100519.78;;;3.90;100.00
46347;BME280;32057;47.830;19.046;2023-04-08T04:40:17;100519.91;;;3.93;100.00
46347;BME280;32057;47.830;19.046;2023-04-08T04:42:43;100522.41;;;3.91;100.00
46347;BME280;32057;47.830;19.046;2023-04-08T04:45:09;100514.63;;;3.90;100.00
46347;BME280;32057;47.830;19.046;2023-04-08T04:47:34;100519.13;;;3.94;100.00
46347;BME280;32057;47.830;19.046;2023-04-08T04:50:00;100526.75;;;3.92;100.00
46347;BME280;32057;47.830;19.046;2023-04-08T04:52:25;100525.88;;;3.92;100.00
46347;BME280;32057;47.830;19.046;2023-04-08T04:54:51;100523.88;;;3.86;100.00
46347;BME280;32057;47.830;19.046;2023-04-08T04:57:16;100523.66;;;3.82;100.00
46347;BME280;32057;47.830;19.046;2023-04-08T04:59:42;100521.88;;;3.81;100.00
46347;BME280;32057;47.830;19.046;2023-04-08T05:02:07;100522.03;;;3.84;100.00
46347;BME280;32057;47.830;19.046;2023-04-08T05:04:33;100523.97;;;3.88;100.00
46347;BME280;32057;47.830;19.046;2023-04-08T05:06:58;100524.34;;;3.95;100.00
46347;BME280;32057;47.830;19.046;2023-04-08T05:09:24;100528.09;;;4.02;100.00
46347;BME280;32057;47.830;19.046;2023-04-08T05:11:50;100525.53;;;4.02;100.00
46347;BME280;32057;47.830;19.046;2023-04-08T05:14:15;100530.91;;;4.07;100.00
46347;BME280;32057;47.830;19.046;2023-04-08T05:16:41;100523.38;;;4.11;100.00
46347;BME280;32057;47.830;19.046;2023-04-08T05:19:06;100529.28;;;4.09;100.00
46347;BME280;32057;47.830;19.046;2023-04-08T05:21:32;100536.91;;;4.07;100.00
46347;BME280;32057;47.830;19.046;2023-04-08T05:23:57;100535.00;;;4.03;100.00
46347;BME280;32057;47.830;19.046;2023-04-08T05:26:22;100541.28;;;4.08;100.00
46347;BME280;32057;47.830;19.046;2023-04-08T05:28:49;100538.69;;;4.08;100.00
46347;BME280;32057;47.830;19.046;2023-04-08T05:31:15;100535.31;;;4.09;100.00
46347;BME280;32057;47.830;19.046;2023-04-08T05:33:41;100542.41;;;4.13;100.00
46347;BME280;32057;47.830;19.046;2023-04-08T05:36:06;100541.66;;;4.16;100.00
46347;BME280;32057;47.830;19.046;2023-04-08T05:38:32;100539.31;;;4.21;100.00
46347;BME280;32057;47.830;19.046;2023-04-08T05:40:57;100541.09;;;4.22;100.00
46347;BME280;32057;47.830;19.046;2023-04-08T05:43:23;100547.19;;;4.24;100.00
46347;BME280;32057;47.830;19.046;2023-04-08T05:45:48;100556.53;;;4.22;100.00
46347;BME280;32057;47.830;19.046;2023-04-08T05:48:14;100553.31;;;4.26;100.00
46347;BME280;32057;47.830;19.046;2023-04-08T05:50:40;100556.84;;;4.28;100.00
46347;BME280;32057;47.830;19.046;2023-04-08T05:53:06;100554.25;;;4.28;100.00
46347;BME280;32057;47.830;19.046;2023-04-08T05:55:31;100558.47;;;4.26;100.00
46347;BME280;32057;47.830;19.046;2023-04-08T05:57:57;100563.59;;;4.26;100.00
46347;BME280;32057;47.830;19.046;2023-04-08T06:00:22;100554.00;;;4.23;100.00
46347;BME280;32057;47.830;19.046;2023-04-08T06:02:47;100556.53;;;4.22;100.00
46347;BME280;32057;47.830;19.046;2023-04-08T06:05:13;100558.16;;;4.19;100.00
46347;BME280;32057;47.830;19.046;2023-04-08T06:07:38;100565.72;;;4.16;100.00
46347;BME280;32057;47.830;19.046;2023-04-08T06:10:04;100563.00;;;4.13;100.00
46347;BME280;32057;47.830;19.046;2023-04-08T06:12:34;100555.41;;;4.16;100.00
46347;BME280;32057;47.830;19.046;2023-04-08T06:15:00;100561.53;;;4.18;100.00
46347;BME280;32057;47.830;19.046;2023-04-08T06:17:25;100564.91;;;4.17;100.00
46347;BME280;32057;47.830;19.046;2023-04-08T06:19:51;100567.50;;;4.17;100.00
46347;BME280;32057;47.830;19.046;2023-04-08T06:22:16;100568.88;;;4.11;100.00
46347;BME280;32057;47.830;19.046;2023-04-08T06:24:41;100566.38;;;4.12;100.00
46347;BME280;32057;47.830;19.046;2023-04-08T06:27:07;100571.81;;;4.18;100.00
46347;BME280;32057;47.830;19.046;2023-04-08T06:29:33;100579.41;;;4.15;100.00
46347;BME280;32057;47.830;19.046;2023-04-08T06:31:58;100583.97;;;4.21;100.00
46347;BME280;32057;47.830;19.046;2023-04-08T06:34:23;100581.34;;;4.19;100.00
46347;BME280;32057;47.830;19.046;2023-04-08T06:36:49;100582.13;;;4.18;100.00
46347;BME280;32057;47.830;19.046;2023-04-08T06:39:14;100580.38;;;4.17;100.00
46347;BME280;32057;47.830;19.046;2023-04-08T06:41:41;100583.91;;;4.19;100.00
46347;BME280;32057;47.830;19.046;2023-04-08T06:44:06;100590.16;;;4.25;100.00
46347;BME280;32057;47.830;19.046;2023-04-08T06:46:32;100589.19;;;4.23;100.00
46347;BME280;32057;47.830;19.046;2023-04-08T06:48:57;100586.06;;;4.28;100.00
46347;BME280;32057;47.830;19.046;2023-04-08T06:51:23;100591.13;;;4.27;100.00
46347;BME280;32057;47.830;19.046;2023-04-08T06:53:48;100599.88;;;4.30;100.00
46347;BME280;32057;47.830;19.046;2023-04-08T06:56:14;100598.19;;;4.31;100.00
46347;BME280;32057;47.830;19.046;2023-04-08T06:58:39;100601.59;;;4.30;100.00
46347;BME280;32057;47.830;19.046;2023-04-08T07:01:05;100603.34;;;4.31;100.00
46347;BME280;32057;47.830;19.046;2023-04-08T07:03:30;100608.66;;;4.34;100.00
46347;BME280;32057;47.830;19.046;2023-04-08T07:05:55;100608.66;;;4.34;100.00
46347;BME280;32057;47.830;19.046;2023-04-08T07:08:21;100605.25;;;4.35;100.00
46347;BME280;32057;47.830;19.046;2023-04-08T07:10:46;100608.78;;;4.37;100.00
46347;BME280;32057;47.830;19.046;2023-04-08T07:13:12;100606.22;;;4.37;100.00
46347;BME280;32057;47.830;19.046;2023-04-08T07:15:37;100605.22;;;4.33;100.00
46347;BME280;32057;47.830;19.046;2023-04-08T07:18:03;100613.16;;;4.38;100.00
46347;BME280;32057;47.830;19.046;2023-04-08T07:20:29;100611.53;;;4.40;100.00
46347;BME280;32057;47.830;19.046;2023-04-08T07:22:54;100617.66;;;4.42;100.00
46347;BME280;32057;47.830;19.046;2023-04-08T07:25:20;100617.06;;;4.48;100.00
46347;BME280;32057;47.830;19.046;2023-04-08T07:27:45;100613.91;;;4.53;100.00
46347;BME280;32057;47.830;19.046;2023-04-08T07:30:11;100622.22;;;4.48;100.00
46347;BME280;32057;47.830;19.046;2023-04-08T07:32:37;100622.28;;;4.49;100.00
46347;BME280;32057;47.830;19.046;2023-04-08T07:35:02;100623.63;;;4.59;100.00
46347;BME280;32057;47.830;19.046;2023-04-08T07:37:28;100632.09;;;4.56;100.00
46347;BME280;32057;47.830;19.046;2023-04-08T07:39:53;100627.81;;;4.57;100.00
46347;BME280;32057;47.830;19.046;2023-04-08T07:42:19;100635.63;;;4.58;100.00
46347;BME280;32057;47.830;19.046;2023-04-08T07:44:45;100632.59;;;4.49;100.00
46347;BME280;32057;47.830;19.046;2023-04-08T07:47:11;100636.47;;;4.57;100.00
46347;BME280;32057;47.830;19.046;2023-04-08T07:49:37;100637.47;;;4.61;100.00
46347;BME280;32057;47.830;19.046;2023-04-08T07:52:03;100639.03;;;4.57;100.00
46347;BME280;32057;47.830;19.046;2023-04-08T07:54:32;100645.06;;;4.58;100.00
46347;BME280;32057;47.830;19.046;2023-04-08T07:57:01;100650.06;;;4.55;100.00
46347;BME280;32057;47.830;19.046;2023-04-08T07:59:27;100647.47;;;4.55;100.00
46347;BME280;32057;47.830;19.046;2023-04-08T08:01:53;100649.03;;;4.51;100.00
46347;BME280;32057;47.830;19.046;2023-04-08T08:04:19;100652.25;;;4.47;100.00
46347;BME280;32057;47.830;19.046;2023-04-08T08:06:45;100660.88;;;4.48;100.00
46347;BME280;32057;47.830;19.046;2023-04-08T08:09:11;100662.72;;;4.50;100.00
46347;BME280;32057;47.830;19.046;2023-04-08T08:11:37;100662.41;;;4.44;100.00
46347;BME280;32057;47.830;19.046;2023-04-08T08:14:03;100663.47;;;4.48;100.00
46347;BME280;32057;47.830;19.046;2023-04-08T08:16:29;100665.22;;;4.49;100.00
46347;BME280;32057;47.830;19.046;2023-04-08T08:18:54;100669.66;;;4.51;100.00
46347;BME280;32057;47.830;19.046;2023-04-08T08:21:20;100661.00;;;4.51;100.00
46347;BME280;32057;47.830;19.046;2023-04-08T08:23:45;100668.53;;;4.46;100.00
46347;BME280;32057;47.830;19.046;2023-04-08T08:26:11;100661.94;;;4.51;100.00
46347;BME280;32057;47.830;19.046;2023-04-08T08:28:38;100669.06;;;4.57;100.00
46347;BME280;32057;47.830;19.046;2023-04-08T08:31:03;100666.56;;;4.58;100.00
46347;BME280;32057;47.830;19.046;2023-04-08T08:33:30;100665.69;;;4.58;100.00
46347;BME280;32057;47.830;19.046;2023-04-08T08:35:56;100663.31;;;4.63;100.00
46347;BME280;32057;47.830;19.046;2023-04-08T08:38:22;100670.25;;;4.64;100.00
46347;BME280;32057;47.830;19.046;2023-04-08T08:40:53;100671.22;;;4.66;100.00
46347;BME280;32057;47.830;19.046;2023-04-08T08:43:19;100667.03;;;4.68;100.00
46347;BME280;32057;47.830;19.046;2023-04-08T08:45:44;100674.09;;;4.72;100.00
46347;BME280;32057;47.830;19.046;2023-04-08T08:48:10;100678.59;;;4.76;100.00
46347;BME280;32057;47.830;19.046;2023-04-08T08:50:35;100678.81;;;4.81;100.00
46347;BME280;32057;47.830;19.046;2023-04-08T08:53:01;100678.31;;;4.88;100.00
46347;BME280;32057;47.830;19.046;2023-04-08T08:55:29;100674.81;;;4.87;100.00
46347;BME280;32057;47.830;19.046;2023-04-08T08:57:56;100676.78;;;4.91;100.00
46347;BME280;32057;47.830;19.046;2023-04-08T09:00:35;100686.78;;;5.03;100.00
46347;BME280;32057;47.830;19.046;2023-04-08T09:03:24;100688.47;;;5.03;100.00
46347;BME280;32057;47.830;19.046;2023-04-08T09:05:52;100688.09;;;5.13;100.00
46347;BME280;32057;47.830;19.046;2023-04-08T09:08:29;100690.75;;;5.14;100.00
46347;BME280;32057;47.830;19.046;2023-04-08T09:11:09;100695.72;;;5.10;100.00
46347;BME280;32057;47.830;19.046;2023-04-08T09:13:35;100694.50;;;5.21;100.00
46347;BME280;32057;47.830;19.046;2023-04-08T09:16:09;100701.28;;;5.19;100.00
46347;BME280;32057;47.830;19.046;2023-04-08T09:18:36;100696.00;;;5.16;100.00
46347;BME280;32057;47.830;19.046;2023-04-08T09:21:03;100699.47;;;5.16;100.00
46347;BME280;32057;47.830;19.046;2023-04-08T09:23:55;100706.69;;;5.24;100.00
46347;BME280;32057;47.830;19.046;2023-04-08T09:26:22;100704.41;;;5.30;100.00
46347;BME280;32057;47.830;19.046;2023-04-08T09:29:03;100706.97;;;5.30;100.00
46347;BME280;32057;47.830;19.046;2023-04-08T09:31:31;100708.31;;;5.39;100.00
46347;BME280;32057;47.830;19.046;2023-04-08T09:34:08;100710.22;;;5.44;100.00
46347;BME280;32057;47.830;19.046;2023-04-08T09:36:34;100700.97;;;5.49;100.00
46347;BME280;32057;47.830;19.046;2023-04-08T09:38:59;100700.75;;;5.62;100.00
46347;BME280;32057;47.830;19.046;2023-04-08T09:41:27;100704.28;;;5.64;100.00
46347;BME280;32057;47.830;19.046;2023-04-08T09:43:54;100703.81;;;5.73;100.00
46347;BME280;32057;47.830;19.046;2023-04-08T09:46:32;100708.25;;;5.75;100.00
46347;BME280;32057;47.830;19.046;2023-04-08T09:49:37;100711.34;;;5.68;100.00
46347;BME280;32057;47.830;19.046;2023-04-08T09:52:10;100703.81;;;5.73;100.00
46347;BME280;32057;47.830;19.046;2023-04-08T09:54:52;100701.22;;;5.73;100.00
46347;BME280;32057;47.830;19.046;2023-04-08T10:00:10;100701.47;;;5.77;100.00
46347;BME280;32057;47.830;19.046;2023-04-08T10:05:30;100703.13;;;5.77;100.00
46347;BME280;32057;47.830;19.046;2023-04-08T10:07:56;100704.25;;;5.82;100.00
46347;BME280;32057;47.830;19.046;2023-04-08T10:10:22;100710.94;;;5.78;100.00
46347;BME280;32057;47.830;19.046;2023-04-08T10:12:48;100698.31;;;5.85;100.00
46347;BME280;32057;47.830;19.046;2023-04-08T10:15:25;100707.56;;;5.79;100.00
46347;BME280;32057;47.830;19.046;2023-04-08T10:18:28;100708.53;;;5.82;100.00
46347;BME280;32057;47.830;19.046;2023-04-08T10:20:44;100708.09;;;5.72;100.00
46347;BME280;32057;47.830;19.046;2023-04-08T10:23:14;100707.97;;;5.69;100.00
46347;BME280;32057;47.830;19.046;2023-04-08T10:25:49;100714.75;;;5.67;100.00
46347;BME280;32057;47.830;19.046;2023-04-08T10:36:08;100716.06;;;5.59;100.00
46347;BME280;32057;47.830;19.046;2023-04-08T10:38:37;100714.31;;;5.58;100.00
46347;BME280;32057;47.830;19.046;2023-04-08T10:41:03;100715.44;;;5.63;100.00
46347;BME280;32057;47.830;19.046;2023-04-08T10:43:35;100721.25;;;5.59;100.00
46347;BME280;32057;47.830;19.046;2023-04-08T10:46:01;100717.84;;;5.60;100.00
46347;BME280;32057;47.830;19.046;2023-04-08T10:48:27;100718.31;;;5.69;100.00
46347;BME280;32057;47.830;19.046;2023-04-08T10:53:27;100717.03;;;5.61;100.00
46347;BME280;32057;47.830;19.046;2023-04-08T10:56:14;100719.47;;;5.58;100.00
46347;BME280;32057;47.830;19.046;2023-04-08T10:58:48;100723.97;;;5.62;100.00
46347;BME280;32057;47.830;19.046;2023-04-08T11:01:14;100721.47;;;5.64;100.00
46347;BME280;32057;47.830;19.046;2023-04-08T11:03:41;100722.28;;;5.63;100.00
46347;BME280;32057;47.830;19.046;2023-04-08T11:06:07;100720.28;;;5.57;100.00
46347;BME280;32057;47.830;19.046;2023-04-08T11:08:33;100719.47;;;5.58;100.00
46347;BME280;32057;47.830;19.046;2023-04-08T11:10:59;100722.16;;;5.59;100.00
46347;BME280;32057;47.830;19.046;2023-04-08T11:13:29;100719.59;;;5.61;100.00
46347;BME280;32057;47.830;19.046;2023-04-08T11:15:57;100720.53;;;5.62;100.00
46347;BME280;32057;47.830;19.046;2023-04-08T11:18:23;100720.38;;;5.58;100.00
46347;BME280;32057;47.830;19.046;2023-04-08T11:20:50;100728.19;;;5.60;100.00
46347;BME280;32057;47.830;19.046;2023-04-08T11:23:16;100716.06;;;5.59;100.00
46347;BME280;32057;47.830;19.046;2023-04-08T11:25:42;100717.94;;;5.62;100.00
46347;BME280;32057;47.830;19.046;2023-04-08T11:28:10;100714.44;;;5.61;100.00
46347;BME280;32057;47.830;19.046;2023-04-08T11:30:37;100722.19;;;5.61;100.00
46347;BME280;32057;47.830;19.046;2023-04-08T11:33:03;100724.94;;;5.64;100.00
46347;BME280;32057;47.830;19.046;2023-04-08T11:35:29;100718.72;;;5.61;100.00
46347;BME280;32057;47.830;19.046;2023-04-08T11:37:55;100721.41;;;5.62;100.00
46347;BME280;32057;47.830;19.046;2023-04-08T11:40:21;100719.75;;;5.64;100.00
46347;BME280;32057;47.830;19.046;2023-04-08T11:42:48;100728.19;;;5.60;100.00
46347;BME280;32057;47.830;19.046;2023-04-08T11:45:16;100723.03;;;5.60;100.00
46347;BME280;32057;47.830;19.046;2023-04-08T11:47:42;100725.69;;;5.62;100.00
46347;BME280;32057;47.830;19.046;2023-04-08T11:50:08;100723.19;;;5.63;100.00
46347;BME280;32057;47.830;19.046;2023-04-08T11:52:59;100724.94;;;5.64;100.00
46347;BME280;32057;47.830;19.046;2023-04-08T11:55:32;100721.56;;;5.65;100.00
46347;BME280;32057;47.830;19.046;2023-04-08T11:58:03;100723.38;;;5.68;100.00
46347;BME280;32057;47.830;19.046;2023-04-08T12:00:29;100732.84;;;5.67;100.00
46347;BME280;32057;47.830;19.046;2023-04-08T12:02:55;100727.72;;;5.69;100.00
46347;BME280;32057;47.830;19.046;2023-04-08T12:05:20;100726.75;;;5.67;100.00
46347;BME280;32057;47.830;19.046;2023-04-08T12:07:46;100720.06;;;5.70;100.00
46347;BME280;32057;47.830;19.046;2023-04-08T12:10:12;100721.97;;;5.74;100.00
46347;BME280;32057;47.830;19.046;2023-04-08T12:12:38;100717.75;;;5.76;100.00
46347;BME280;32057;47.830;19.046;2023-04-08T12:15:05;100718.69;;;5.78;100.00
46347;BME280;32057;47.830;19.046;2023-04-08T12:17:31;100724.63;;;5.76;100.00
46347;BME280;32057;47.830;19.046;2023-04-08T12:19:56;100724.47;;;5.73;100.00
46347;BME280;32057;47.830;19.046;2023-04-08T12:22:22;100716.59;;;5.70;100.00
46347;BME280;32057;47.830;19.046;2023-04-08T12:24:48;100716.72;;;5.73;100.00
46347;BME280;32057;47.830;19.046;2023-04-08T12:27:13;100709.13;;;5.76;100.00
46347;BME280;32057;47.830;19.046;2023-04-08T12:29:38;100713.69;;;5.82;100.00
46347;BME280;32057;47.830;19.046;2023-04-08T12:32:04;100710.44;;;5.86;100.00
46347;BME280;32057;47.830;19.046;2023-04-08T12:34:30;100712.75;;;5.79;100.00
46347;BME280;32057;47.830;19.046;2023-04-08T12:36:56;100714.50;;;5.81;100.00
46347;BME280;32057;47.830;19.046;2023-04-08T12:39:21;100715.44;;;5.83;100.00
46347;BME280;32057;47.830;19.046;2023-04-08T12:41:47;100716.34;;;5.83;100.00
46347;BME280;32057;47.830;19.046;2023-04-08T12:44:12;100710.59;;;5.71;100.00
46347;BME280;32057;47.830;19.046;2023-04-08T12:46:38;100714.38;;;5.77;100.00
46347;BME280;32057;47.830;19.046;2023-04-08T12:49:03;100709.31;;;5.81;100.00
46347;BME280;32057;47.830;19.046;2023-04-08T12:51:29;100712.19;;;5.87;100.00
46347;BME280;32057;47.830;19.046;2023-04-08T12:53:55;100719.22;;;5.89;100.00
46347;BME280;32057;47.830;19.046;2023-04-08T12:56:20;100719.25;;;5.91;100.00
46347;BME280;32057;47.830;19.046;2023-04-08T12:58:46;100716.03;;;5.95;100.00